Hillside, Pennsylvania
Current Conditions -  °F | °C
As of 10:58 AM on Wednesday 22 Oct 2014 (Local Time) from KMUI Reporting Station
Light Rain Light Rain  
Wind Chill: 53°   Ceiling: 2200
Heat Index: 53°   Visibility: 10mi
Dew Point: 53°   Wind: 9mph
Humidity: 100%   Direction: 20°NNE
Pressure: 29.97"   Gusts: NA
Location:  40.6882°N, 76.264°W
Report Text: KMUI 221458Z AUTO 02008KT 10SM -RA BKN022 OVC028 12/12 A2997 RMK AO2 RAB1356E1357B1422DZE1356B1420E1422 SLP152 P0001 60002 T01180118 51013 $
Loading
Personal Weather Stations






























Interactive Weather Map
Tropical Storm Tracking
New forecast layout! Learn more

10-Day Weather Forecast

Advertisements
Track Severe Weather on mobile